sensor_id;sensor_type;location;lat;lon;timestamp;pressure;altitude;pressure_sealevel;temperature;humidity
52651;BME280;38537;47.226;39.702;2022-09-09T00:00:48;100900.72;;;16.98;47.25
52651;BME280;38537;47.226;39.702;2022-09-09T00:03:43;100900.06;;;17.01;47.00
52651;BME280;38537;47.226;39.702;2022-09-09T00:06:17;100910.94;;;17.11;46.91
52651;BME280;38537;47.226;39.702;2022-09-09T00:08:53;100923.28;;;17.07;46.90
52651;BME280;38537;47.226;39.702;2022-09-09T00:11:40;100917.66;;;16.98;47.30
52651;BME280;38537;47.226;39.702;2022-09-09T00:15:02;100924.03;;;16.87;47.40
52651;BME280;38537;47.226;39.702;2022-09-09T00:17:32;100925.72;;;16.62;47.65
52651;BME280;38537;47.226;39.702;2022-09-09T00:20:22;100920.75;;;16.59;47.51
52651;BME280;38537;47.226;39.702;2022-09-09T00:23:00;100923.75;;;16.36;47.62
52651;BME280;38537;47.226;39.702;2022-09-09T00:25:34;100918.16;;;16.19;48.07
52651;BME280;38537;47.226;39.702;2022-09-09T00:28:13;100909.53;;;16.07;48.64
52651;BME280;38537;47.226;39.702;2022-09-09T00:30:44;100915.19;;;15.98;48.61
52651;BME280;38537;47.226;39.702;2022-09-09T00:33:18;100911.34;;;15.86;48.53
52651;BME280;38537;47.226;39.702;2022-09-09T00:35:54;100919.97;;;15.89;48.95
52651;BME280;38537;47.226;39.702;2022-09-09T00:38:35;100921.44;;;15.87;48.61
52651;BME280;38537;47.226;39.702;2022-09-09T00:41:13;100915.16;;;15.81;48.56
52651;BME280;38537;47.226;39.702;2022-09-09T00:43:56;100904.91;;;15.76;48.71
52651;BME280;38537;47.226;39.702;2022-09-09T00:52:31;100921.44;;;15.87;49.07
52651;BME280;38537;47.226;39.702;2022-09-09T00:57:42;100913.16;;;15.82;48.93
52651;BME280;38537;47.226;39.702;2022-09-09T01:00:27;100924.44;;;15.90;49.54
52651;BME280;38537;47.226;39.702;2022-09-09T01:08:03;100907.06;;;15.80;49.31
52651;BME280;38537;47.226;39.702;2022-09-09T01:10:49;100936.38;;;15.87;49.73
52651;BME280;38537;47.226;39.702;2022-09-09T01:13:30;100926.59;;;15.76;50.22
52651;BME280;38537;47.226;39.702;2022-09-09T01:16:04;100920.78;;;15.72;49.65
52651;BME280;38537;47.226;39.702;2022-09-09T01:18:44;100924.41;;;15.82;49.48
52651;BME280;38537;47.226;39.702;2022-09-09T01:26:54;100932.88;;;15.82;50.26
52651;BME280;38537;47.226;39.702;2022-09-09T01:29:25;100929.41;;;15.76;49.79
52651;BME280;38537;47.226;39.702;2022-09-09T01:31:55;100929.75;;;15.74;50.50
52651;BME280;38537;47.226;39.702;2022-09-09T01:34:33;100927.22;;;15.64;50.33
52651;BME280;38537;47.226;39.702;2022-09-09T01:37:03;100921.75;;;15.59;50.07
52651;BME280;38537;47.226;39.702;2022-09-09T01:39:33;100927.53;;;15.54;50.18
52651;BME280;38537;47.226;39.702;2022-09-09T01:42:08;100930.16;;;15.51;50.03
52651;BME280;38537;47.226;39.702;2022-09-09T01:44:38;100924.66;;;15.46;49.99
52651;BME280;38537;47.226;39.702;2022-09-09T01:47:06;100918.03;;;15.41;49.85
52651;BME280;38537;47.226;39.702;2022-09-09T01:49:39;100901.16;;;15.41;50.05
52651;BME280;38537;47.226;39.702;2022-09-09T01:52:15;100897.69;;;15.44;49.21
52651;BME280;38537;47.226;39.702;2022-09-09T01:54:42;100918.38;;;15.49;49.67
52651;BME280;38537;47.226;39.702;2022-09-09T01:57:27;100913.28;;;15.51;50.05
52651;BME280;38537;47.226;39.702;2022-09-09T02:00:07;100905.81;;;15.46;50.95
52651;BME280;38537;47.226;39.702;2022-09-09T02:03:03;100906.63;;;15.47;51.76
52651;BME280;38537;47.226;39.702;2022-09-09T02:06:03;100901.19;;;15.50;52.11
52651;BME280;38537;47.226;39.702;2022-09-09T02:08:45;100902.41;;;15.58;51.20
52651;BME280;38537;47.226;39.702;2022-09-09T02:11:19;100904.38;;;15.66;52.38
52651;BME280;38537;47.226;39.702;2022-09-09T02:14:13;100902.91;;;15.77;50.65
52651;BME280;38537;47.226;39.702;2022-09-09T02:16:54;100910.19;;;15.87;49.46
52651;BME280;38537;47.226;39.702;2022-09-09T02:19:37;100894.81;;;16.01;49.13
52651;BME280;38537;47.226;39.702;2022-09-09T02:22:27;100904.22;;;16.05;50.80
52651;BME280;38537;47.226;39.702;2022-09-09T02:24:58;100909.69;;;16.10;50.22
52651;BME280;38537;47.226;39.702;2022-09-09T02:27:29;100913.31;;;16.02;52.52
52651;BME280;38537;47.226;39.702;2022-09-09T02:29:59;100919.13;;;15.89;54.29
52651;BME280;38537;47.226;39.702;2022-09-09T02:32:54;100920.13;;;15.93;51.71
52651;BME280;38537;47.226;39.702;2022-09-09T02:35:35;100922.47;;;15.91;53.45
52651;BME280;38537;47.226;39.702;2022-09-09T02:38:07;100927.25;;;15.82;54.50
52651;BME280;38537;47.226;39.702;2022-09-09T02:40:38;100935.22;;;15.80;54.79
52651;BME280;38537;47.226;39.702;2022-09-09T02:43:05;100928.41;;;15.81;52.41
52651;BME280;38537;47.226;39.702;2022-09-09T02:46:08;100927.09;;;15.95;52.00
52651;BME280;38537;47.226;39.702;2022-09-09T02:49:00;100932.41;;;15.97;52.34
52651;BME280;38537;47.226;39.702;2022-09-09T02:54:31;100938.53;;;15.99;52.07
52651;BME280;38537;47.226;39.702;2022-09-09T02:59:36;100947.81;;;16.17;50.53
52651;BME280;38537;47.226;39.702;2022-09-09T03:02:04;100929.75;;;16.09;50.25
52651;BME280;38537;47.226;39.702;2022-09-09T03:04:32;100939.88;;;16.19;51.38
52651;BME280;38537;47.226;39.702;2022-09-09T03:07:00;100935.22;;;16.14;52.83
52651;BME280;38537;47.226;39.702;2022-09-09T03:09:27;100943.19;;;16.21;50.73
52651;BME280;38537;47.226;39.702;2022-09-09T03:11:56;100946.50;;;16.23;50.84
52651;BME280;38537;47.226;39.702;2022-09-09T03:14:24;100950.63;;;16.25;51.11
52651;BME280;38537;47.226;39.702;2022-09-09T03:16:53;100953.09;;;16.27;52.29
52651;BME280;38537;47.226;39.702;2022-09-09T03:19:21;100949.78;;;16.25;50.91
52651;BME280;38537;47.226;39.702;2022-09-09T03:21:49;100942.31;;;16.03;53.43
52651;BME280;38537;47.226;39.702;2022-09-09T03:24:17;100959.25;;;15.94;54.03
52651;BME280;38537;47.226;39.702;2022-09-09T03:26:44;100971.97;;;15.74;54.97
52651;BME280;38537;47.226;39.702;2022-09-09T03:29:15;100979.06;;;15.63;55.73
52651;BME280;38537;47.226;39.702;2022-09-09T03:31:43;100978.97;;;15.46;56.27
52651;BME280;38537;47.226;39.702;2022-09-09T03:34:11;100985.91;;;15.40;56.53
52651;BME280;38537;47.226;39.702;2022-09-09T03:36:40;100970.75;;;15.19;57.10
52651;BME280;38537;47.226;39.702;2022-09-09T03:39:08;100992.81;;;15.25;57.43
52651;BME280;38537;47.226;39.702;2022-09-09T03:41:38;100982.94;;;15.05;57.72
52651;BME280;38537;47.226;39.702;2022-09-09T03:44:06;100989.13;;;14.85;58.91
52651;BME280;38537;47.226;39.702;2022-09-09T03:46:39;100990.38;;;14.70;59.60
52651;BME280;38537;47.226;39.702;2022-09-09T03:49:06;100987.41;;;14.75;59.17
52651;BME280;38537;47.226;39.702;2022-09-09T03:51:34;100986.56;;;14.75;59.62
52651;BME280;38537;47.226;39.702;2022-09-09T03:54:04;100991.13;;;14.85;58.70
52651;BME280;38537;47.226;39.702;2022-09-09T03:56:36;100999.13;;;15.00;58.04
52651;BME280;38537;47.226;39.702;2022-09-09T03:59:03;100995.03;;;15.06;57.29
52651;BME280;38537;47.226;39.702;2022-09-09T04:01:31;100997.75;;;15.20;57.99
52651;BME280;38537;47.226;39.702;2022-09-09T04:03:58;100992.63;;;15.22;58.05
52651;BME280;38537;47.226;39.702;2022-09-09T04:06:26;100996.06;;;15.19;58.68
52651;BME280;38537;47.226;39.702;2022-09-09T04:08:55;100997.59;;;15.25;58.43
52651;BME280;38537;47.226;39.702;2022-09-09T04:11:25;101005.59;;;15.31;58.26
52651;BME280;38537;47.226;39.702;2022-09-09T04:13:55;101001.13;;;15.39;57.57
52651;BME280;38537;47.226;39.702;2022-09-09T04:16:22;100998.69;;;15.46;57.49
52651;BME280;38537;47.226;39.702;2022-09-09T04:18:50;100994.59;;;15.61;56.37
52651;BME280;38537;47.226;39.702;2022-09-09T04:21:18;100997.31;;;15.74;56.46
52651;BME280;38537;47.226;39.702;2022-09-09T04:23:46;101003.78;;;15.84;56.78
52651;BME280;38537;47.226;39.702;2022-09-09T04:26:13;100995.69;;;15.91;56.43
52651;BME280;38537;47.226;39.702;2022-09-09T04:28:40;100996.22;;;16.01;55.46
52651;BME280;38537;47.226;39.702;2022-09-09T04:31:19;101002.84;;;16.31;56.22
52651;BME280;38537;47.226;39.702;2022-09-09T04:33:53;101000.19;;;16.26;54.83
52651;BME280;38537;47.226;39.702;2022-09-09T04:36:21;101004.34;;;16.37;54.85
52651;BME280;38537;47.226;39.702;2022-09-09T04:38:51;100995.88;;;16.55;53.65
52651;BME280;38537;47.226;39.702;2022-09-09T04:41:19;101001.34;;;16.60;54.13
52651;BME280;38537;47.226;39.702;2022-09-09T04:43:51;100997.25;;;16.66;53.83
52651;BME280;38537;47.226;39.702;2022-09-09T04:46:21;101005.50;;;16.79;52.87
52651;BME280;38537;47.226;39.702;2022-09-09T04:48:50;101007.63;;;16.91;52.68
52651;BME280;38537;47.226;39.702;2022-09-09T04:51:19;101008.78;;;16.99;52.67
52651;BME280;38537;47.226;39.702;2022-09-09T04:53:48;101007.59;;;17.08;52.06
52651;BME280;38537;47.226;39.702;2022-09-09T04:56:19;101006.22;;;17.14;52.07
52651;BME280;38537;47.226;39.702;2022-09-09T04:58:50;101008.38;;;17.26;51.44
52651;BME280;38537;47.226;39.702;2022-09-09T05:01:23;101016.41;;;17.45;51.05
52651;BME280;38537;47.226;39.702;2022-09-09T05:03:53;101012.75;;;17.53;50.67
52651;BME280;38537;47.226;39.702;2022-09-09T05:06:23;101017.34;;;17.66;50.45
52651;BME280;38537;47.226;39.702;2022-09-09T05:08:57;101007.19;;;17.74;49.88
52651;BME280;38537;47.226;39.702;2022-09-09T05:11:30;101015.28;;;17.75;49.43
52651;BME280;38537;47.226;39.702;2022-09-09T05:14:05;101001.66;;;17.77;50.06
52651;BME280;38537;47.226;39.702;2022-09-09T05:16:32;101010.25;;;17.90;50.10
52651;BME280;38537;47.226;39.702;2022-09-09T05:19:00;101022.38;;;17.90;50.10
52651;BME280;38537;47.226;39.702;2022-09-09T05:21:41;101007.59;;;17.85;50.09
52651;BME280;38537;47.226;39.702;2022-09-09T05:24:08;101005.59;;;17.85;50.07
52651;BME280;38537;47.226;39.702;2022-09-09T05:26:36;101006.91;;;17.88;49.98
52651;BME280;38537;47.226;39.702;2022-09-09T05:29:03;100990.91;;;17.71;49.73
52651;BME280;38537;47.226;39.702;2022-09-09T05:31:31;101013.25;;;17.85;49.70
52651;BME280;38537;47.226;39.702;2022-09-09T05:34:03;101017.19;;;17.92;49.77
52651;BME280;38537;47.226;39.702;2022-09-09T05:36:30;101008.25;;;17.90;49.51
52651;BME280;38537;47.226;39.702;2022-09-09T05:38:58;101016.56;;;17.87;49.41
52651;BME280;38537;47.226;39.702;2022-09-09T05:41:27;101014.75;;;17.82;49.28
52651;BME280;38537;47.226;39.702;2022-09-09T05:43:57;101015.06;;;17.89;49.38
52651;BME280;38537;47.226;39.702;2022-09-09T05:46:25;101012.03;;;17.94;48.91
52651;BME280;38537;47.226;39.702;2022-09-09T05:48:54;101004.50;;;17.98;48.41
52651;BME280;38537;47.226;39.702;2022-09-09T05:51:29;101003.34;;;17.99;48.33
52651;BME280;38537;47.226;39.702;2022-09-09T05:54:01;101009.34;;;17.98;48.50
52651;BME280;38537;47.226;39.702;2022-09-09T05:56:32;101009.81;;;18.00;48.72
52651;BME280;38537;47.226;39.702;2022-09-09T05:59:00;101020.09;;;18.04;48.95
52651;BME280;38537;47.226;39.702;2022-09-09T06:01:33;101015.47;;;18.00;49.20
52651;BME280;38537;47.226;39.702;2022-09-09T06:04:02;101022.25;;;18.07;49.17
52651;BME280;38537;47.226;39.702;2022-09-09T06:06:34;101025.91;;;18.08;49.28
52651;BME280;38537;47.226;39.702;2022-09-09T06:09:11;101020.19;;;18.17;49.12
52651;BME280;38537;47.226;39.702;2022-09-09T06:11:42;101024.94;;;18.25;49.06
52651;BME280;38537;47.226;39.702;2022-09-09T06:14:10;101030.25;;;18.26;50.05
52651;BME280;38537;47.226;39.702;2022-09-09T06:16:39;101035.03;;;18.34;49.64
52651;BME280;38537;47.226;39.702;2022-09-09T06:19:17;101035.66;;;18.40;50.79
52651;BME280;38537;47.226;39.702;2022-09-09T06:21:46;101012.47;;;18.26;51.53
52651;BME280;38537;47.226;39.702;2022-09-09T06:24:15;101030.13;;;18.43;50.88
52651;BME280;38537;47.226;39.702;2022-09-09T06:26:45;101033.31;;;18.63;50.23
52651;BME280;38537;47.226;39.702;2022-09-09T06:29:18;101032.06;;;18.72;50.02
52651;BME280;38537;47.226;39.702;2022-09-09T06:31:46;101025.84;;;18.79;49.64
52651;BME280;38537;47.226;39.702;2022-09-09T06:34:19;101018.09;;;18.88;49.19
52651;BME280;38537;47.226;39.702;2022-09-09T06:36:51;101026.63;;;19.00;48.88
52651;BME280;38537;47.226;39.702;2022-09-09T06:39:19;101026.84;;;18.95;48.70
52651;BME280;38537;47.226;39.702;2022-09-09T06:41:46;101024.97;;;18.99;48.52
52651;BME280;38537;47.226;39.702;2022-09-09T06:44:32;101038.47;;;19.14;48.32
52651;BME280;38537;47.226;39.702;2022-09-09T06:47:03;101031.88;;;19.23;48.34
52651;BME280;38537;47.226;39.702;2022-09-09T06:49:32;101036.25;;;19.32;47.99
52651;BME280;38537;47.226;39.702;2022-09-09T06:52:01;101045.84;;;19.40;48.50
52651;BME280;38537;47.226;39.702;2022-09-09T06:54:29;101039.69;;;19.38;48.20
52651;BME280;38537;47.226;39.702;2022-09-09T06:56:57;101044.63;;;19.29;47.97
52651;BME280;38537;47.226;39.702;2022-09-09T06:59:31;101043.94;;;19.32;47.82
52651;BME280;38537;47.226;39.702;2022-09-09T07:01:59;101055.53;;;19.39;48.04
52651;BME280;38537;47.226;39.702;2022-09-09T07:04:26;101047.28;;;19.46;47.83
52651;BME280;38537;47.226;39.702;2022-09-09T07:06:53;101046.00;;;19.56;47.30
52651;BME280;38537;47.226;39.702;2022-09-09T07:09:23;101050.75;;;19.64;47.44
52651;BME280;38537;47.226;39.702;2022-09-09T07:11:52;101050.97;;;19.71;47.53
52651;BME280;38537;47.226;39.702;2022-09-09T07:14:22;101047.09;;;19.75;47.17
52651;BME280;38537;47.226;39.702;2022-09-09T07:17:02;101060.91;;;19.89;47.12
52651;BME280;38537;47.226;39.702;2022-09-09T07:19:35;101049.22;;;19.91;46.96
52651;BME280;38537;47.226;39.702;2022-09-09T07:22:05;101058.41;;;20.00;46.98
52651;BME280;38537;47.226;39.702;2022-09-09T07:24:34;101054.28;;;20.09;46.81
52651;BME280;38537;47.226;39.702;2022-09-09T07:27:02;101050.38;;;20.14;46.57
52651;BME280;38537;47.226;39.702;2022-09-09T07:29:30;101060.75;;;20.22;46.39
52651;BME280;38537;47.226;39.702;2022-09-09T07:31:58;101072.34;;;20.29;46.13
52651;BME280;38537;47.226;39.702;2022-09-09T07:34:31;101065.22;;;20.35;45.34
52651;BME280;38537;47.226;39.702;2022-09-09T07:36:58;101057.69;;;20.39;45.06
52651;BME280;38537;47.226;39.702;2022-09-09T07:39:26;101061.22;;;20.48;44.93
52651;BME280;38537;47.226;39.702;2022-09-09T07:41:54;101044.66;;;20.50;44.68
52651;BME280;38537;47.226;39.702;2022-09-09T07:44:24;101061.28;;;20.64;44.45
52651;BME280;38537;47.226;39.702;2022-09-09T07:47:05;101068.03;;;20.72;43.77
52651;BME280;38537;47.226;39.702;2022-09-09T07:49:37;101064.00;;;20.73;43.46
52651;BME280;38537;47.226;39.702;2022-09-09T07:52:06;101064.94;;;20.77;43.35
52651;BME280;38537;47.226;39.702;2022-09-09T07:54:35;101065.28;;;20.75;42.92
52651;BME280;38537;47.226;39.702;2022-09-09T07:57:05;101058.44;;;20.76;42.71
52651;BME280;38537;47.226;39.702;2022-09-09T07:59:34;101063.47;;;20.83;42.15
52651;BME280;38537;47.226;39.702;2022-09-09T08:02:09;101061.44;;;20.83;41.53
52651;BME280;38537;47.226;39.702;2022-09-09T08:04:37;101067.50;;;20.82;39.53
52651;BME280;38537;47.226;39.702;2022-09-09T08:07:05;101051.81;;;20.72;39.96
52651;BME280;38537;47.226;39.702;2022-09-09T08:09:39;101055.22;;;20.78;40.65
52651;BME280;38537;47.226;39.702;2022-09-09T08:12:13;101049.63;;;20.81;40.07
52651;BME280;38537;47.226;39.702;2022-09-09T08:14:41;101047.38;;;20.87;40.51
52651;BME280;38537;47.226;39.702;2022-09-09T08:17:08;101036.34;;;20.98;40.47
52651;BME280;38537;47.226;39.702;2022-09-09T08:19:36;101046.94;;;21.01;39.10
52651;BME280;38537;47.226;39.702;2022-09-09T08:22:10;101040.00;;;20.98;38.77
52651;BME280;38537;47.226;39.702;2022-09-09T08:24:40;101046.88;;;20.97;38.31
52651;BME280;38537;47.226;39.702;2022-09-09T08:27:08;101027.59;;;20.91;38.05
52651;BME280;38537;47.226;39.702;2022-09-09T08:29:37;101031.16;;;20.87;37.84
52651;BME280;38537;47.226;39.702;2022-09-09T08:32:05;101027.34;;;20.96;38.21
52651;BME280;38537;47.226;39.702;2022-09-09T08:34:34;101032.66;;;20.97;38.38
52651;BME280;38537;47.226;39.702;2022-09-09T08:37:10;101026.69;;;21.02;37.92
52651;BME280;38537;47.226;39.702;2022-09-09T08:39:40;101030.28;;;20.99;37.67
52651;BME280;38537;47.226;39.702;2022-09-09T08:50:59;101035.53;;;20.85;35.71
52651;BME280;38537;47.226;39.702;2022-09-09T08:53:44;101006.66;;;20.67;36.29
52651;BME280;38537;47.226;39.702;2022-09-09T08:56:19;101016.88;;;20.84;36.70
52651;BME280;38537;47.226;39.702;2022-09-09T08:58:53;101014.44;;;20.98;36.88
52651;BME280;38537;47.226;39.702;2022-09-09T09:05:07;101013.94;;;21.24;35.62
52651;BME280;38537;47.226;39.702;2022-09-09T09:07:42;101011.94;;;21.25;34.62
52651;BME280;38537;47.226;39.702;2022-09-09T09:10:38;101011.47;;;21.23;34.52
52651;BME280;38537;47.226;39.702;2022-09-09T09:13:20;101017.88;;;21.19;34.21
52651;BME280;38537;47.226;39.702;2022-09-09T09:15:56;101021.28;;;21.25;34.65
52651;BME280;38537;47.226;39.702;2022-09-09T09:18:26;101021.63;;;21.24;33.70
52651;BME280;38537;47.226;39.702;2022-09-09T09:21:06;101018.38;;;21.22;33.94
52651;BME280;38537;47.226;39.702;2022-09-09T09:23:58;101010.22;;;21.20;33.71
52651;BME280;38537;47.226;39.702;2022-09-09T09:26:35;101014.25;;;21.07;33.38
52651;BME280;38537;47.226;39.702;2022-09-09T09:29:14;101037.06;;;20.95;33.51
52651;BME280;38537;47.226;39.702;2022-09-09T09:31:49;101024.56;;;20.83;34.10
52651;BME280;38537;47.226;39.702;2022-09-09T09:34:18;101013.78;;;20.89;34.35
52651;BME280;38537;47.226;39.702;2022-09-09T09:36:56;101036.94;;;20.91;33.79
52651;BME280;38537;47.226;39.702;2022-09-09T09:39:31;101013.31;;;20.87;34.05
52651;BME280;38537;47.226;39.702;2022-09-09T09:42:23;101024.16;;;20.97;34.61
52651;BME280;38537;47.226;39.702;2022-09-09T09:44:54;101011.69;;;21.02;34.33
52651;BME280;38537;47.226;39.702;2022-09-09T09:47:23;101009.88;;;21.09;34.30
52651;BME280;38537;47.226;39.702;2022-09-09T09:50:17;101044.28;;;21.20;33.81
52651;BME280;38537;47.226;39.702;2022-09-09T09:52:59;101021.91;;;21.18;34.08
52651;BME280;38537;47.226;39.702;2022-09-09T09:55:30;101028.06;;;21.20;34.37
52651;BME280;38537;47.226;39.702;2022-09-09T09:58:05;101002.19;;;21.10;34.29
52651;BME280;38537;47.226;39.702;2022-09-09T10:00:35;101023.66;;;21.23;34.64
52651;BME280;38537;47.226;39.702;2022-09-09T10:03:22;101017.16;;;21.23;34.17
52651;BME280;38537;47.226;39.702;2022-09-09T10:05:51;100995.03;;;21.16;34.50
52651;BME280;38537;47.226;39.702;2022-09-09T10:08:19;101011.66;;;21.30;34.33
52651;BME280;38537;47.226;39.702;2022-09-09T10:10:50;101009.38;;;21.35;34.54
52651;BME280;38537;47.226;39.702;2022-09-09T10:16:57;101005.72;;;21.35;34.00
52651;BME280;38537;47.226;39.702;2022-09-09T10:19:33;101002.03;;;21.18;34.13
52651;BME280;38537;47.226;39.702;2022-09-09T10:22:11;101002.03;;;21.18;34.27
52651;BME280;38537;47.226;39.702;2022-09-09T10:36:34;101004.16;;;21.22;34.05
52651;BME280;38537;47.226;39.702;2022-09-09T10:42:08;101010.75;;;21.26;34.04
52651;BME280;38537;47.226;39.702;2022-09-09T10:44:46;101001.03;;;21.27;34.27
52651;BME280;38537;47.226;39.702;2022-09-09T10:51:09;100991.78;;;21.45;34.55
52651;BME280;38537;47.226;39.702;2022-09-09T10:56:33;100990.41;;;21.55;34.41
52651;BME280;38537;47.226;39.702;2022-09-09T10:59:14;100985.06;;;21.69;34.35
52651;BME280;38537;47.226;39.702;2022-09-09T11:01:51;100982.88;;;21.78;34.69
52651;BME280;38537;47.226;39.702;2022-09-09T11:04:22;100984.75;;;21.90;34.70
52651;BME280;38537;47.226;39.702;2022-09-09T11:06:55;100989.69;;;22.09;34.85
52651;BME280;38537;47.226;39.702;2022-09-09T11:09:26;100991.53;;;22.17;33.73
52651;BME280;38537;47.226;39.702;2022-09-09T11:11:57;100989.13;;;22.19;33.65
52651;BME280;38537;47.226;39.702;2022-09-09T11:14:38;100986.38;;;22.22;33.68
52651;BME280;38537;47.226;39.702;2022-09-09T11:17:17;100985.72;;;22.29;34.06
52651;BME280;38537;47.226;39.702;2022-09-09T11:19:45;100979.34;;;22.36;34.31
52651;BME280;38537;47.226;39.702;2022-09-09T11:22:38;100978.38;;;22.47;34.37
52651;BME280;38537;47.226;39.702;2022-09-09T11:25:37;100986.19;;;22.70;34.27
52651;BME280;38537;47.226;39.702;2022-09-09T11:33:38;100977.94;;;22.65;33.17
52651;BME280;38537;47.226;39.702;2022-09-09T11:44:41;100968.47;;;22.61;33.61
52651;BME280;38537;47.226;39.702;2022-09-09T11:47:27;100965.19;;;22.78;33.56
52651;BME280;38537;47.226;39.702;2022-09-09T11:52:44;100960.63;;;22.93;32.76
52651;BME280;38537;47.226;39.702;2022-09-09T11:55:30;100950.47;;;22.95;32.85
52651;BME280;38537;47.226;39.702;2022-09-09T11:58:05;100952.13;;;22.96;32.80
52651;BME280;38537;47.226;39.702;2022-09-09T12:00:36;100924.72;;;22.88;33.59
52651;BME280;38537;47.226;39.702;2022-09-09T12:03:05;100953.91;;;23.04;32.95
52651;BME280;38537;47.226;39.702;2022-09-09T12:05:42;100961.56;;;23.00;32.58
52651;BME280;38537;47.226;39.702;2022-09-09T12:08:16;100954.16;;;22.96;32.63
52651;BME280;38537;47.226;39.702;2022-09-09T12:10:55;100959.50;;;22.78;32.09
52651;BME280;38537;47.226;39.702;2022-09-09T12:13:26;100960.75;;;22.61;32.29
52651;BME280;38537;47.226;39.702;2022-09-09T12:15:58;100926.25;;;22.43;32.50
52651;BME280;38537;47.226;39.702;2022-09-09T12:18:33;100948.84;;;22.55;32.81
52651;BME280;38537;47.226;39.702;2022-09-09T12:24:19;100944.22;;;22.47;32.46
52651;BME280;38537;47.226;39.702;2022-09-09T12:27:11;100950.03;;;22.54;32.83
52651;BME280;38537;47.226;39.702;2022-09-09T12:29:45;100949.38;;;22.61;32.91
52651;BME280;38537;47.226;39.702;2022-09-09T12:32:22;100946.31;;;22.70;32.71
52651;BME280;38537;47.226;39.702;2022-09-09T12:35:04;100945.50;;;22.69;32.95
52651;BME280;38537;47.226;39.702;2022-09-09T12:37:58;100934.03;;;22.66;33.26
52651;BME280;38537;47.226;39.702;2022-09-09T12:40:32;100940.31;;;22.55;33.22
52651;BME280;38537;47.226;39.702;2022-09-09T12:43:17;100943.00;;;22.68;33.15
52651;BME280;38537;47.226;39.702;2022-09-09T12:45:44;100941.06;;;22.52;33.80
52651;BME280;38537;47.226;39.702;2022-09-09T12:48:12;100947.66;;;22.56;33.46
52651;BME280;38537;47.226;39.702;2022-09-09T12:50:48;100948.47;;;22.57;33.54
52651;BME280;38537;47.226;39.702;2022-09-09T12:56:00;100956.06;;;22.49;33.52
52651;BME280;38537;47.226;39.702;2022-09-09T12:58:30;100948.28;;;22.46;33.59
52651;BME280;38537;47.226;39.702;2022-09-09T13:01:03;100956.81;;;22.46;33.61
52651;BME280;38537;47.226;39.702;2022-09-09T13:03:33;100949.47;;;22.45;33.65
52651;BME280;38537;47.226;39.702;2022-09-09T13:06:18;100937.38;;;22.52;33.68
52651;BME280;38537;47.226;39.702;2022-09-09T13:08:50;100950.66;;;22.64;33.29
52651;BME280;38537;47.226;39.702;2022-09-09T13:11:40;100954.69;;;22.82;33.75
52651;BME280;38537;47.226;39.702;2022-09-09T13:14:29;100948.06;;;22.97;33.62
52651;BME280;38537;47.226;39.702;2022-09-09T13:16:59;100936.75;;;23.01;33.50
52651;BME280;38537;47.226;39.702;2022-09-09T13:19:31;100946.81;;;23.17;33.41
52651;BME280;38537;47.226;39.702;2022-09-09T13:22:00;100957.72;;;23.12;33.26
52651;BME280;38537;47.226;39.702;2022-09-09T13:24:39;100944.78;;;22.95;33.33
52651;BME280;38537;47.226;39.702;2022-09-09T13:27:32;100942.50;;;23.04;33.47
52651;BME280;38537;47.226;39.702;2022-09-09T13:30:01;100948.53;;;22.99;33.62
52651;BME280;38537;47.226;39.702;2022-09-09T13:32:29;100951.81;;;23.01;33.58
52651;BME280;38537;47.226;39.702;2022-09-09T13:34:59;100955.19;;;23.07;33.63
52651;BME280;38537;47.226;39.702;2022-09-09T13:37:36;100952.97;;;23.19;33.92
52651;BME280;38537;47.226;39.702;2022-09-09T13:40:05;100931.75;;;23.17;33.63
52651;BME280;38537;47.226;39.702;2022-09-09T13:42:39;100952.84;;;23.35;33.61
52651;BME280;38537;47.226;39.702;2022-09-09T13:45:18;100956.63;;;23.43;33.50
52651;BME280;38537;47.226;39.702;2022-09-09T13:47:47;100960.38;;;23.47;33.52
52651;BME280;38537;47.226;39.702;2022-09-09T13:50:27;100961.94;;;23.44;33.35
52651;BME280;38537;47.226;39.702;2022-09-09T13:52:58;100961.94;;;23.44;33.23
52651;BME280;38537;47.226;39.702;2022-09-09T13:55:36;100960.38;;;23.47;33.19
52651;BME280;38537;47.226;39.702;2022-09-09T13:58:03;100970.13;;;23.46;33.17
52651;BME280;38537;47.226;39.702;2022-09-09T14:00:33;100960.69;;;23.42;33.22
52651;BME280;38537;47.226;39.702;2022-09-09T14:03:03;100973.28;;;23.41;33.56
52651;BME280;38537;47.226;39.702;2022-09-09T14:05:32;100963.53;;;23.42;33.99
52651;BME280;38537;47.226;39.702;2022-09-09T14:08:03;100971.25;;;23.41;33.35
52651;BME280;38537;47.226;39.702;2022-09-09T14:10:32;100972.72;;;23.32;33.79
52651;BME280;38537;47.226;39.702;2022-09-09T14:12:59;100974.88;;;23.15;33.76
52651;BME280;38537;47.226;39.702;2022-09-09T14:15:26;100964.84;;;23.02;34.52
52651;BME280;38537;47.226;39.702;2022-09-09T14:17:54;100970.97;;;22.81;35.12
52651;BME280;38537;47.226;39.702;2022-09-09T14:20:21;100973.34;;;22.60;35.08
52651;BME280;38537;47.226;39.702;2022-09-09T14:22:48;100980.31;;;22.43;35.33
52651;BME280;38537;47.226;39.702;2022-09-09T14:25:16;100979.25;;;22.32;35.56
52651;BME280;38537;47.226;39.702;2022-09-09T14:27:44;100987.66;;;22.25;35.97
52651;BME280;38537;47.226;39.702;2022-09-09T14:30:13;100972.16;;;22.22;35.99
52651;BME280;38537;47.226;39.702;2022-09-09T14:32:40;100979.13;;;22.25;36.17
52651;BME280;38537;47.226;39.702;2022-09-09T14:35:07;100984.25;;;22.19;36.44
52651;BME280;38537;47.226;39.702;2022-09-09T14:37:35;100988.97;;;22.12;36.36